Startpagina
METAR-TAF:

METAR-TAF

Vliegvelden :

Sukkur, Pakistan

breedte: 27-43-19N, lengte: 068-47-31E, hoogte: 60 m

Actueel weer

Dit bericht is 45 minuten geleden gemaakt, om 17:00 UTC
Wind 4 kt uit het westen
Temperatuur 20°C
Vochtigheid 68%
Druk 1013 hPa
Zicht: 4000 m
Heiigheid

METAR: OPSK 161700Z 27004KT 4000 HZ NSC 20/14 Q1013 NOSIG

Tijdstip: 22:45 (17:45 UTC)

Verwachting

Dit bericht is 2 uur en het 15 minuten geleden gemaakt, om 15:30 UTC
Verwachting geldig van 16 om 18 UTC tot 17 om 18 UTC
Wind 5 kt uit het zuidwesten
Zicht: 2000 m
rook
Tijdelijke
van 17 om 00 UTC tot 17 om 04 UTC
Wind kt uit het noorden
Zicht: 1000 m
Weinig wolken op 3000 ft
nevel
Van 17 om 0600 UTC
Wind 5 kt uit het westen
Zicht: 5000 m
Heiigheid

TAF: OPSK 161530Z 1618/1718 22005KT 2000 FU NSC TEMPO 1700/1704 00000KT 1000 BR FEW030 FM170600 26005KT 5000 HZ NSC

Waarnemingen en weersverwachtingen van meer dan 4000 vliegvelden (METAR en TAF).

De beschikbare stations zijn de gele en rode punten op de kaart.

Ga met uw muis naar het station om de naam te zien.

Klik dan om waarnemingen en weersverwachtingen te zien.

kaart wijzigen: klik op de groene knoppen met een zwart kruis om in te zoomen, op de groene knop met een streepje om uit te zoomen of op de groene pijlen voor aangrenzende kaarten.


METAR-TAF: